Crauthem, Luxembourg
Current Conditions -  °F | °C
As of 9:50 PM on Friday 19 Dec 2014 (Local Time) from ELLX Reporting Station
Clear Clear  
Wind Chill: 36°   Ceiling: Unl
Heat Index: 41°   Visibility: 6mi
Dew Point: 36°   Wind: 8mph
Humidity: 81%   Direction: 290°WNW
Pressure: 30.15"   Gusts: NA
Location:  49.54°N, 6.15°E
Report Text: ELLX 192050Z 29007KT 240V320 CAVOK 05/02 Q1021 NOSIG
Loading
Personal Weather Stations






























Interactive Weather Map New forecast layout! Learn more

10-Day Weather Forecast

Advertisements
Track Severe Weather on mobile